sensor_id;sensor_type;location;lat;lon;timestamp;P1;durP1;ratioP1;P2;durP2;ratioP2
41201;SDS011;26936;50.524;8.684;2022-11-20T00:00:55;15.80;;;8.68;;
41201;SDS011;26936;50.524;8.684;2022-11-20T00:03:21;16.60;;;8.38;;
41201;SDS011;26936;50.524;8.684;2022-11-20T00:05:46;16.38;;;8.43;;
41201;SDS011;26936;50.524;8.684;2022-11-20T00:08:12;16.85;;;8.98;;
41201;SDS011;26936;50.524;8.684;2022-11-20T00:10:38;15.70;;;8.30;;
41201;SDS011;26936;50.524;8.684;2022-11-20T00:13:05;16.77;;;9.60;;
41201;SDS011;26936;50.524;8.684;2022-11-20T00:15:30;16.98;;;9.15;;
41201;SDS011;26936;50.524;8.684;2022-11-20T00:17:55;16.20;;;9.13;;
41201;SDS011;26936;50.524;8.684;2022-11-20T00:20:21;16.50;;;9.30;;
41201;SDS011;26936;50.524;8.684;2022-11-20T00:22:47;17.33;;;9.88;;
41201;SDS011;26936;50.524;8.684;2022-11-20T00:25:12;18.70;;;9.60;;
41201;SDS011;26936;50.524;8.684;2022-11-20T00:27:37;17.75;;;9.30;;
41201;SDS011;26936;50.524;8.684;2022-11-20T00:30:03;16.65;;;9.68;;
41201;SDS011;26936;50.524;8.684;2022-11-20T00:32:29;17.52;;;9.52;;
41201;SDS011;26936;50.524;8.684;2022-11-20T00:34:55;18.85;;;9.77;;
41201;SDS011;26936;50.524;8.684;2022-11-20T00:37:20;18.65;;;9.75;;
41201;SDS011;26936;50.524;8.684;2022-11-20T00:39:45;17.52;;;9.85;;
41201;SDS011;26936;50.524;8.684;2022-11-20T00:42:10;18.38;;;9.65;;
41201;SDS011;26936;50.524;8.684;2022-11-20T00:44:36;17.92;;;9.88;;
41201;SDS011;26936;50.524;8.684;2022-11-20T00:47:01;18.33;;;9.57;;
41201;SDS011;26936;50.524;8.684;2022-11-20T00:49:26;18.13;;;9.80;;
41201;SDS011;26936;50.524;8.684;2022-11-20T00:51:51;18.20;;;9.77;;
41201;SDS011;26936;50.524;8.684;2022-11-20T00:54:17;17.80;;;9.25;;
41201;SDS011;26936;50.524;8.684;2022-11-20T00:56:42;18.87;;;9.87;;
41201;SDS011;26936;50.524;8.684;2022-11-20T00:59:08;18.02;;;9.40;;
41201;SDS011;26936;50.524;8.684;2022-11-20T01:01:34;18.98;;;10.02;;
41201;SDS011;26936;50.524;8.684;2022-11-20T01:04:00;17.00;;;9.25;;
41201;SDS011;26936;50.524;8.684;2022-11-20T01:06:27;18.75;;;9.80;;
41201;SDS011;26936;50.524;8.684;2022-11-20T01:08:55;19.40;;;9.63;;
41201;SDS011;26936;50.524;8.684;2022-11-20T01:11:24;17.25;;;9.00;;
41201;SDS011;26936;50.524;8.684;2022-11-20T01:13:55;16.58;;;9.13;;
41201;SDS011;26936;50.524;8.684;2022-11-20T01:16:22;16.95;;;9.38;;
41201;SDS011;26936;50.524;8.684;2022-11-20T01:18:52;16.77;;;9.25;;
41201;SDS011;26936;50.524;8.684;2022-11-20T01:21:22;17.08;;;9.68;;
41201;SDS011;26936;50.524;8.684;2022-11-20T01:23:50;16.55;;;9.23;;
41201;SDS011;26936;50.524;8.684;2022-11-20T01:26:17;17.27;;;8.70;;
41201;SDS011;26936;50.524;8.684;2022-11-20T01:28:47;18.23;;;9.43;;
41201;SDS011;26936;50.524;8.684;2022-11-20T01:31:14;17.10;;;8.77;;
41201;SDS011;26936;50.524;8.684;2022-11-20T01:33:41;18.60;;;9.98;;
41201;SDS011;26936;50.524;8.684;2022-11-20T01:36:08;19.65;;;10.23;;
41201;SDS011;26936;50.524;8.684;2022-11-20T01:38:34;18.00;;;9.75;;
41201;SDS011;26936;50.524;8.684;2022-11-20T01:41:00;19.67;;;10.07;;
41201;SDS011;26936;50.524;8.684;2022-11-20T01:43:25;19.77;;;10.00;;
41201;SDS011;26936;50.524;8.684;2022-11-20T01:48:20;19.75;;;10.73;;
41201;SDS011;26936;50.524;8.684;2022-11-20T01:50:48;18.75;;;10.10;;
41201;SDS011;26936;50.524;8.684;2022-11-20T01:53:16;18.30;;;10.55;;
41201;SDS011;26936;50.524;8.684;2022-11-20T01:55:47;18.35;;;9.70;;
41201;SDS011;26936;50.524;8.684;2022-11-20T01:58:18;18.25;;;9.68;;
41201;SDS011;26936;50.524;8.684;2022-11-20T02:03:16;16.87;;;9.10;;
41201;SDS011;26936;50.524;8.684;2022-11-20T02:05:49;17.70;;;10.02;;
41201;SDS011;26936;50.524;8.684;2022-11-20T02:08:20;17.40;;;9.43;;
41201;SDS011;26936;50.524;8.684;2022-11-20T02:10:46;22.45;;;10.70;;
41201;SDS011;26936;50.524;8.684;2022-11-20T02:13:12;19.23;;;9.52;;
41201;SDS011;26936;50.524;8.684;2022-11-20T02:15:56;18.35;;;9.15;;
41201;SDS011;26936;50.524;8.684;2022-11-20T02:18:21;17.90;;;9.93;;
41201;SDS011;26936;50.524;8.684;2022-11-20T02:20:48;20.42;;;10.65;;
41201;SDS011;26936;50.524;8.684;2022-11-20T02:25:46;17.20;;;9.23;;
41201;SDS011;26936;50.524;8.684;2022-11-20T02:28:12;20.23;;;10.02;;
41201;SDS011;26936;50.524;8.684;2022-11-20T02:30:37;19.23;;;9.68;;
41201;SDS011;26936;50.524;8.684;2022-11-20T02:33:02;16.20;;;9.15;;
41201;SDS011;26936;50.524;8.684;2022-11-20T02:37:53;16.20;;;9.47;;
41201;SDS011;26936;50.524;8.684;2022-11-20T02:40:20;16.55;;;9.18;;
41201;SDS011;26936;50.524;8.684;2022-11-20T02:42:45;19.17;;;9.82;;
41201;SDS011;26936;50.524;8.684;2022-11-20T02:45:11;15.93;;;9.00;;
41201;SDS011;26936;50.524;8.684;2022-11-20T02:47:37;19.48;;;9.75;;
41201;SDS011;26936;50.524;8.684;2022-11-20T02:50:03;16.67;;;9.43;;
41201;SDS011;26936;50.524;8.684;2022-11-20T02:52:29;18.10;;;9.90;;
41201;SDS011;26936;50.524;8.684;2022-11-20T02:54:54;18.98;;;10.07;;
41201;SDS011;26936;50.524;8.684;2022-11-20T02:57:20;20.02;;;9.85;;
41201;SDS011;26936;50.524;8.684;2022-11-20T02:59:45;19.25;;;10.40;;
41201;SDS011;26936;50.524;8.684;2022-11-20T03:02:10;17.50;;;10.15;;
41201;SDS011;26936;50.524;8.684;2022-11-20T03:04:36;18.90;;;9.73;;
41201;SDS011;26936;50.524;8.684;2022-11-20T03:07:01;16.00;;;9.05;;
41201;SDS011;26936;50.524;8.684;2022-11-20T03:09:27;16.02;;;9.40;;
41201;SDS011;26936;50.524;8.684;2022-11-20T03:11:52;16.67;;;9.52;;
41201;SDS011;26936;50.524;8.684;2022-11-20T03:14:17;18.08;;;9.63;;
41201;SDS011;26936;50.524;8.684;2022-11-20T03:16:42;20.30;;;10.10;;
41201;SDS011;26936;50.524;8.684;2022-11-20T03:19:08;18.02;;;10.57;;
41201;SDS011;26936;50.524;8.684;2022-11-20T03:21:33;18.83;;;9.13;;
41201;SDS011;26936;50.524;8.684;2022-11-20T03:23:59;20.20;;;10.05;;
41201;SDS011;26936;50.524;8.684;2022-11-20T03:26:25;17.67;;;9.43;;
41201;SDS011;26936;50.524;8.684;2022-11-20T03:28:52;21.70;;;10.38;;
41201;SDS011;26936;50.524;8.684;2022-11-20T03:31:27;19.33;;;10.15;;
41201;SDS011;26936;50.524;8.684;2022-11-20T03:33:55;17.33;;;9.52;;
41201;SDS011;26936;50.524;8.684;2022-11-20T03:36:21;18.98;;;10.18;;
41201;SDS011;26936;50.524;8.684;2022-11-20T03:38:46;19.63;;;10.32;;
41201;SDS011;26936;50.524;8.684;2022-11-20T03:41:14;17.85;;;9.40;;
41201;SDS011;26936;50.524;8.684;2022-11-20T03:43:50;18.92;;;10.20;;
41201;SDS011;26936;50.524;8.684;2022-11-20T03:48:43;17.65;;;8.82;;
41201;SDS011;26936;50.524;8.684;2022-11-20T03:53:33;19.10;;;10.20;;
41201;SDS011;26936;50.524;8.684;2022-11-20T03:55:58;17.67;;;10.27;;
41201;SDS011;26936;50.524;8.684;2022-11-20T03:58:24;20.88;;;10.77;;
41201;SDS011;26936;50.524;8.684;2022-11-20T04:00:49;18.15;;;9.82;;
41201;SDS011;26936;50.524;8.684;2022-11-20T04:03:14;21.13;;;10.52;;
41201;SDS011;26936;50.524;8.684;2022-11-20T04:05:40;20.27;;;10.23;;
41201;SDS011;26936;50.524;8.684;2022-11-20T04:08:05;17.00;;;9.83;;
41201;SDS011;26936;50.524;8.684;2022-11-20T04:10:30;19.40;;;10.13;;
41201;SDS011;26936;50.524;8.684;2022-11-20T04:12:55;19.10;;;10.18;;
41201;SDS011;26936;50.524;8.684;2022-11-20T04:15:21;20.00;;;10.38;;
41201;SDS011;26936;50.524;8.684;2022-11-20T04:17:46;17.52;;;9.40;;
41201;SDS011;26936;50.524;8.684;2022-11-20T04:20:11;18.83;;;9.75;;
41201;SDS011;26936;50.524;8.684;2022-11-20T04:22:37;19.80;;;10.13;;
41201;SDS011;26936;50.524;8.684;2022-11-20T04:25:02;20.57;;;10.67;;
41201;SDS011;26936;50.524;8.684;2022-11-20T04:27:28;18.65;;;10.20;;
41201;SDS011;26936;50.524;8.684;2022-11-20T04:29:53;18.50;;;9.13;;
41201;SDS011;26936;50.524;8.684;2022-11-20T04:32:18;21.57;;;11.17;;
41201;SDS011;26936;50.524;8.684;2022-11-20T04:34:44;19.50;;;10.25;;
41201;SDS011;26936;50.524;8.684;2022-11-20T04:37:09;18.03;;;9.87;;
41201;SDS011;26936;50.524;8.684;2022-11-20T04:39:34;18.57;;;10.23;;
41201;SDS011;26936;50.524;8.684;2022-11-20T04:41:59;17.43;;;9.43;;
41201;SDS011;26936;50.524;8.684;2022-11-20T04:44:43;17.95;;;9.65;;
41201;SDS011;26936;50.524;8.684;2022-11-20T04:47:08;21.33;;;10.33;;
41201;SDS011;26936;50.524;8.684;2022-11-20T04:49:33;19.67;;;10.33;;
41201;SDS011;26936;50.524;8.684;2022-11-20T04:51:59;20.25;;;9.80;;
41201;SDS011;26936;50.524;8.684;2022-11-20T04:54:24;18.85;;;10.05;;
41201;SDS011;26936;50.524;8.684;2022-11-20T04:56:49;20.75;;;10.55;;
41201;SDS011;26936;50.524;8.684;2022-11-20T04:59:15;18.40;;;10.32;;
41201;SDS011;26936;50.524;8.684;2022-11-20T05:01:40;18.25;;;10.13;;
41201;SDS011;26936;50.524;8.684;2022-11-20T05:04:06;18.55;;;10.55;;
41201;SDS011;26936;50.524;8.684;2022-11-20T05:06:31;19.55;;;11.10;;
41201;SDS011;26936;50.524;8.684;2022-11-20T05:08:57;27.70;;;11.23;;
41201;SDS011;26936;50.524;8.684;2022-11-20T05:11:22;20.05;;;10.75;;
41201;SDS011;26936;50.524;8.684;2022-11-20T05:13:48;18.73;;;10.43;;
41201;SDS011;26936;50.524;8.684;2022-11-20T05:16:16;21.65;;;10.75;;
41201;SDS011;26936;50.524;8.684;2022-11-20T05:18:43;17.73;;;10.07;;
41201;SDS011;26936;50.524;8.684;2022-11-20T05:21:08;20.13;;;10.25;;
41201;SDS011;26936;50.524;8.684;2022-11-20T05:23:35;20.60;;;10.82;;
41201;SDS011;26936;50.524;8.684;2022-11-20T05:26:01;18.75;;;10.43;;
41201;SDS011;26936;50.524;8.684;2022-11-20T05:28:27;20.63;;;10.20;;
41201;SDS011;26936;50.524;8.684;2022-11-20T05:30:53;20.77;;;9.75;;
41201;SDS011;26936;50.524;8.684;2022-11-20T05:33:19;20.38;;;11.05;;
41201;SDS011;26936;50.524;8.684;2022-11-20T05:35:44;21.42;;;9.63;;
41201;SDS011;26936;50.524;8.684;2022-11-20T05:38:10;20.75;;;11.73;;
41201;SDS011;26936;50.524;8.684;2022-11-20T05:40:35;19.67;;;10.55;;
41201;SDS011;26936;50.524;8.684;2022-11-20T05:43:01;22.85;;;11.40;;
41201;SDS011;26936;50.524;8.684;2022-11-20T05:45:26;23.13;;;11.15;;
41201;SDS011;26936;50.524;8.684;2022-11-20T05:47:52;20.17;;;10.52;;
41201;SDS011;26936;50.524;8.684;2022-11-20T05:50:17;21.55;;;10.90;;
41201;SDS011;26936;50.524;8.684;2022-11-20T05:52:43;18.17;;;9.93;;
41201;SDS011;26936;50.524;8.684;2022-11-20T05:55:08;24.05;;;11.73;;
41201;SDS011;26936;50.524;8.684;2022-11-20T05:57:33;21.42;;;10.25;;
41201;SDS011;26936;50.524;8.684;2022-11-20T05:59:59;20.08;;;10.60;;
41201;SDS011;26936;50.524;8.684;2022-11-20T06:02:24;21.50;;;11.90;;
41201;SDS011;26936;50.524;8.684;2022-11-20T06:04:49;21.05;;;11.43;;
41201;SDS011;26936;50.524;8.684;2022-11-20T06:07:15;19.40;;;10.70;;
41201;SDS011;26936;50.524;8.684;2022-11-20T06:09:40;23.48;;;10.27;;
41201;SDS011;26936;50.524;8.684;2022-11-20T06:12:05;21.20;;;11.23;;
41201;SDS011;26936;50.524;8.684;2022-11-20T06:14:32;24.00;;;12.27;;
41201;SDS011;26936;50.524;8.684;2022-11-20T06:16:57;22.83;;;11.35;;
41201;SDS011;26936;50.524;8.684;2022-11-20T06:19:23;23.20;;;12.23;;
41201;SDS011;26936;50.524;8.684;2022-11-20T06:21:49;22.27;;;11.93;;
41201;SDS011;26936;50.524;8.684;2022-11-20T06:24:15;23.50;;;12.02;;
41201;SDS011;26936;50.524;8.684;2022-11-20T06:26:40;23.17;;;11.95;;
41201;SDS011;26936;50.524;8.684;2022-11-20T06:29:05;22.48;;;11.57;;
41201;SDS011;26936;50.524;8.684;2022-11-20T06:31:31;21.35;;;11.15;;
41201;SDS011;26936;50.524;8.684;2022-11-20T06:34:02;22.02;;;11.68;;
41201;SDS011;26936;50.524;8.684;2022-11-20T06:36:31;20.15;;;11.70;;
41201;SDS011;26936;50.524;8.684;2022-11-20T06:38:57;21.98;;;11.38;;
41201;SDS011;26936;50.524;8.684;2022-11-20T06:41:22;20.95;;;11.70;;
41201;SDS011;26936;50.524;8.684;2022-11-20T06:43:47;22.50;;;11.60;;
41201;SDS011;26936;50.524;8.684;2022-11-20T06:46:13;22.10;;;11.50;;
41201;SDS011;26936;50.524;8.684;2022-11-20T06:48:42;22.55;;;12.40;;
41201;SDS011;26936;50.524;8.684;2022-11-20T06:51:08;21.77;;;11.77;;
41201;SDS011;26936;50.524;8.684;2022-11-20T06:53:33;23.10;;;11.40;;
41201;SDS011;26936;50.524;8.684;2022-11-20T06:55:59;23.50;;;11.60;;
41201;SDS011;26936;50.524;8.684;2022-11-20T06:58:28;22.35;;;11.70;;
41201;SDS011;26936;50.524;8.684;2022-11-20T07:00:58;23.58;;;12.25;;
41201;SDS011;26936;50.524;8.684;2022-11-20T07:03:28;24.83;;;13.13;;
41201;SDS011;26936;50.524;8.684;2022-11-20T07:05:56;27.70;;;12.52;;
41201;SDS011;26936;50.524;8.684;2022-11-20T07:08:23;22.75;;;11.68;;
41201;SDS011;26936;50.524;8.684;2022-11-20T07:10:49;26.10;;;13.30;;
41201;SDS011;26936;50.524;8.684;2022-11-20T07:13:15;24.83;;;12.60;;
41201;SDS011;26936;50.524;8.684;2022-11-20T07:15:40;19.45;;;11.57;;
41201;SDS011;26936;50.524;8.684;2022-11-20T07:18:05;23.77;;;12.10;;
41201;SDS011;26936;50.524;8.684;2022-11-20T07:20:30;25.73;;;12.88;;
41201;SDS011;26936;50.524;8.684;2022-11-20T07:22:56;26.05;;;13.18;;
41201;SDS011;26936;50.524;8.684;2022-11-20T07:25:23;24.35;;;12.90;;
41201;SDS011;26936;50.524;8.684;2022-11-20T07:27:49;26.45;;;13.30;;
41201;SDS011;26936;50.524;8.684;2022-11-20T07:30:14;31.27;;;14.07;;
41201;SDS011;26936;50.524;8.684;2022-11-20T07:32:40;25.08;;;13.50;;
41201;SDS011;26936;50.524;8.684;2022-11-20T07:35:06;28.23;;;13.80;;
41201;SDS011;26936;50.524;8.684;2022-11-20T07:37:33;22.00;;;12.35;;
41201;SDS011;26936;50.524;8.684;2022-11-20T07:39:59;27.10;;;13.75;;
41201;SDS011;26936;50.524;8.684;2022-11-20T07:42:24;25.90;;;13.67;;
41201;SDS011;26936;50.524;8.684;2022-11-20T07:44:49;31.97;;;15.80;;
41201;SDS011;26936;50.524;8.684;2022-11-20T07:47:15;33.25;;;16.52;;
41201;SDS011;26936;50.524;8.684;2022-11-20T07:49:40;27.27;;;15.30;;
41201;SDS011;26936;50.524;8.684;2022-11-20T07:52:06;26.70;;;14.67;;
41201;SDS011;26936;50.524;8.684;2022-11-20T07:54:31;26.87;;;14.50;;
41201;SDS011;26936;50.524;8.684;2022-11-20T07:56:56;24.13;;;13.82;;
41201;SDS011;26936;50.524;8.684;2022-11-20T07:59:21;24.90;;;13.40;;
41201;SDS011;26936;50.524;8.684;2022-11-20T08:01:47;26.40;;;14.07;;
41201;SDS011;26936;50.524;8.684;2022-11-20T08:04:12;23.10;;;12.55;;
41201;SDS011;26936;50.524;8.684;2022-11-20T08:06:37;26.20;;;14.48;;
41201;SDS011;26936;50.524;8.684;2022-11-20T08:09:03;26.48;;;13.45;;
41201;SDS011;26936;50.524;8.684;2022-11-20T08:11:28;28.95;;;14.52;;
41201;SDS011;26936;50.524;8.684;2022-11-20T08:14:12;28.58;;;14.38;;
41201;SDS011;26936;50.524;8.684;2022-11-20T08:16:42;27.52;;;14.45;;
41201;SDS011;26936;50.524;8.684;2022-11-20T08:19:09;28.08;;;15.10;;
41201;SDS011;26936;50.524;8.684;2022-11-20T08:21:35;29.17;;;14.88;;
41201;SDS011;26936;50.524;8.684;2022-11-20T08:24:00;27.60;;;14.98;;
41201;SDS011;26936;50.524;8.684;2022-11-20T08:26:26;26.17;;;14.40;;
41201;SDS011;26936;50.524;8.684;2022-11-20T08:28:55;25.55;;;13.45;;
41201;SDS011;26936;50.524;8.684;2022-11-20T08:31:21;26.60;;;14.07;;
41201;SDS011;26936;50.524;8.684;2022-11-20T08:33:48;25.40;;;14.00;;
41201;SDS011;26936;50.524;8.684;2022-11-20T08:36:13;30.65;;;14.73;;
41201;SDS011;26936;50.524;8.684;2022-11-20T08:38:38;28.52;;;13.38;;
41201;SDS011;26936;50.524;8.684;2022-11-20T08:41:04;30.05;;;15.60;;
41201;SDS011;26936;50.524;8.684;2022-11-20T08:43:48;28.02;;;14.05;;
41201;SDS011;26936;50.524;8.684;2022-11-20T08:46:18;30.80;;;15.73;;
41201;SDS011;26936;50.524;8.684;2022-11-20T08:48:43;32.03;;;15.15;;
41201;SDS011;26936;50.524;8.684;2022-11-20T08:51:10;38.53;;;19.05;;
41201;SDS011;26936;50.524;8.684;2022-11-20T08:53:36;32.00;;;15.90;;
41201;SDS011;26936;50.524;8.684;2022-11-20T08:56:01;30.17;;;16.13;;
41201;SDS011;26936;50.524;8.684;2022-11-20T08:58:26;38.53;;;17.70;;
41201;SDS011;26936;50.524;8.684;2022-11-20T09:00:52;40.27;;;16.63;;
41201;SDS011;26936;50.524;8.684;2022-11-20T09:03:17;38.50;;;18.55;;
41201;SDS011;26936;50.524;8.684;2022-11-20T09:05:43;36.70;;;18.23;;
41201;SDS011;26936;50.524;8.684;2022-11-20T09:08:08;32.55;;;16.40;;
41201;SDS011;26936;50.524;8.684;2022-11-20T09:10:33;31.58;;;16.10;;
41201;SDS011;26936;50.524;8.684;2022-11-20T09:12:59;33.00;;;16.45;;
41201;SDS011;26936;50.524;8.684;2022-11-20T09:15:25;33.95;;;16.50;;
41201;SDS011;26936;50.524;8.684;2022-11-20T09:17:54;38.42;;;17.05;;
41201;SDS011;26936;50.524;8.684;2022-11-20T09:20:20;33.40;;;17.02;;
41201;SDS011;26936;50.524;8.684;2022-11-20T09:22:46;36.97;;;17.90;;
41201;SDS011;26936;50.524;8.684;2022-11-20T09:25:12;34.03;;;16.45;;
41201;SDS011;26936;50.524;8.684;2022-11-20T09:27:37;34.60;;;17.13;;
41201;SDS011;26936;50.524;8.684;2022-11-20T09:30:03;33.22;;;17.10;;
41201;SDS011;26936;50.524;8.684;2022-11-20T09:32:28;38.17;;;17.83;;
41201;SDS011;26936;50.524;8.684;2022-11-20T09:34:54;36.00;;;17.02;;
41201;SDS011;26936;50.524;8.684;2022-11-20T09:37:19;35.83;;;16.67;;
41201;SDS011;26936;50.524;8.684;2022-11-20T09:39:44;34.25;;;16.40;;
41201;SDS011;26936;50.524;8.684;2022-11-20T09:45:27;37.72;;;16.98;;
41201;SDS011;26936;50.524;8.684;2022-11-20T09:48:13;41.40;;;18.17;;
41201;SDS011;26936;50.524;8.684;2022-11-20T09:53:35;39.67;;;17.58;;
41201;SDS011;26936;50.524;8.684;2022-11-20T09:56:06;39.42;;;17.55;;
41201;SDS011;26936;50.524;8.684;2022-11-20T09:58:39;42.45;;;19.25;;
41201;SDS011;26936;50.524;8.684;2022-11-20T10:09:30;46.78;;;20.70;;
41201;SDS011;26936;50.524;8.684;2022-11-20T10:23:48;40.83;;;18.35;;
41201;SDS011;26936;50.524;8.684;2022-11-20T10:29:11;43.60;;;18.55;;
41201;SDS011;26936;50.524;8.684;2022-11-20T10:34:07;40.97;;;17.60;;
41201;SDS011;26936;50.524;8.684;2022-11-20T10:36:47;45.35;;;19.77;;
41201;SDS011;26936;50.524;8.684;2022-11-20T10:39:22;46.75;;;18.02;;
41201;SDS011;26936;50.524;8.684;2022-11-20T10:41:56;42.58;;;18.52;;
41201;SDS011;26936;50.524;8.684;2022-11-20T10:44:24;44.58;;;18.48;;
41201;SDS011;26936;50.524;8.684;2022-11-20T10:47:15;45.63;;;19.10;;
41201;SDS011;26936;50.524;8.684;2022-11-20T10:49:42;46.53;;;19.15;;
41201;SDS011;26936;50.524;8.684;2022-11-20T10:52:13;46.40;;;18.83;;
41201;SDS011;26936;50.524;8.684;2022-11-20T11:00:11;41.90;;;18.38;;
41201;SDS011;26936;50.524;8.684;2022-11-20T11:02:42;43.13;;;18.15;;
41201;SDS011;26936;50.524;8.684;2022-11-20T11:07:46;48.25;;;19.45;;
41201;SDS011;26936;50.524;8.684;2022-11-20T11:10:15;47.08;;;19.27;;
41201;SDS011;26936;50.524;8.684;2022-11-20T11:12:43;44.50;;;18.83;;
41201;SDS011;26936;50.524;8.684;2022-11-20T11:15:13;51.95;;;19.25;;
41201;SDS011;26936;50.524;8.684;2022-11-20T11:17:49;44.45;;;17.95;;
41201;SDS011;26936;50.524;8.684;2022-11-20T11:20:19;42.08;;;17.83;;
41201;SDS011;26936;50.524;8.684;2022-11-20T11:25:31;46.40;;;18.10;;
41201;SDS011;26936;50.524;8.684;2022-11-20T11:28:04;43.53;;;18.67;;
41201;SDS011;26936;50.524;8.684;2022-11-20T11:30:44;45.08;;;17.70;;
41201;SDS011;26936;50.524;8.684;2022-11-20T11:33:11;39.97;;;17.75;;
41201;SDS011;26936;50.524;8.684;2022-11-20T11:35:47;40.03;;;16.33;;
41201;SDS011;26936;50.524;8.684;2022-11-20T11:38:15;43.40;;;16.45;;
41201;SDS011;26936;50.524;8.684;2022-11-20T11:40:44;41.13;;;16.60;;
41201;SDS011;26936;50.524;8.684;2022-11-20T11:43:31;41.95;;;17.08;;
41201;SDS011;26936;50.524;8.684;2022-11-20T11:48:55;41.75;;;17.90;;
41201;SDS011;26936;50.524;8.684;2022-11-20T11:51:21;47.97;;;18.40;;
41201;SDS011;26936;50.524;8.684;2022-11-20T11:53:47;41.80;;;17.67;;
41201;SDS011;26936;50.524;8.684;2022-11-20T11:56:12;43.88;;;17.65;;
41201;SDS011;26936;50.524;8.684;2022-11-20T11:58:50;43.88;;;17.45;;
41201;SDS011;26936;50.524;8.684;2022-11-20T12:04:00;37.65;;;16.20;;
41201;SDS011;26936;50.524;8.684;2022-11-20T12:09:01;38.13;;;15.98;;
41201;SDS011;26936;50.524;8.684;2022-11-20T12:11:30;44.33;;;17.80;;
41201;SDS011;26936;50.524;8.684;2022-11-20T12:14:11;39.72;;;16.73;;
41201;SDS011;26936;50.524;8.684;2022-11-20T12:16:44;41.03;;;17.17;;
41201;SDS011;26936;50.524;8.684;2022-11-20T12:19:13;35.60;;;15.75;;
41201;SDS011;26936;50.524;8.684;2022-11-20T12:27:01;39.55;;;16.15;;
41201;SDS011;26936;50.524;8.684;2022-11-20T12:32:40;36.83;;;15.88;;
41201;SDS011;26936;50.524;8.684;2022-11-20T12:38:09;31.23;;;14.65;;
41201;SDS011;26936;50.524;8.684;2022-11-20T12:43:17;39.15;;;16.23;;
41201;SDS011;26936;50.524;8.684;2022-11-20T12:46:08;39.03;;;15.90;;
41201;SDS011;26936;50.524;8.684;2022-11-20T13:02:44;37.33;;;16.60;;
41201;SDS011;26936;50.524;8.684;2022-11-20T13:05:18;39.63;;;16.75;;
41201;SDS011;26936;50.524;8.684;2022-11-20T13:07:52;39.45;;;17.42;;
41201;SDS011;26936;50.524;8.684;2022-11-20T13:10:25;44.22;;;18.52;;
41201;SDS011;26936;50.524;8.684;2022-11-20T13:13:05;40.17;;;17.15;;
41201;SDS011;26936;50.524;8.684;2022-11-20T13:15:50;40.35;;;16.83;;
41201;SDS011;26936;50.524;8.684;2022-11-20T13:18:22;40.97;;;18.92;;
41201;SDS011;26936;50.524;8.684;2022-11-20T13:20:47;45.80;;;17.33;;
41201;SDS011;26936;50.524;8.684;2022-11-20T13:23:22;43.60;;;18.00;;
41201;SDS011;26936;50.524;8.684;2022-11-20T13:25:49;43.67;;;17.92;;
41201;SDS011;26936;50.524;8.684;2022-11-20T13:30:50;39.97;;;18.10;;
41201;SDS011;26936;50.524;8.684;2022-11-20T13:33:24;40.70;;;17.65;;
41201;SDS011;26936;50.524;8.684;2022-11-20T13:36:36;42.85;;;17.67;;
41201;SDS011;26936;50.524;8.684;2022-11-20T13:38:48;42.30;;;18.05;;
41201;SDS011;26936;50.524;8.684;2022-11-20T13:41:29;41.15;;;17.35;;
41201;SDS011;26936;50.524;8.684;2022-11-20T13:46:40;42.60;;;17.55;;
41201;SDS011;26936;50.524;8.684;2022-11-20T13:49:09;45.13;;;17.48;;
41201;SDS011;26936;50.524;8.684;2022-11-20T13:51:47;45.30;;;17.73;;
41201;SDS011;26936;50.524;8.684;2022-11-20T13:59:58;44.65;;;18.67;;
41201;SDS011;26936;50.524;8.684;2022-11-20T14:02:35;42.88;;;18.20;;
41201;SDS011;26936;50.524;8.684;2022-11-20T14:05:01;40.40;;;17.83;;
41201;SDS011;26936;50.524;8.684;2022-11-20T14:07:31;43.67;;;18.23;;
41201;SDS011;26936;50.524;8.684;2022-11-20T14:10:01;40.53;;;18.17;;
41201;SDS011;26936;50.524;8.684;2022-11-20T14:12:30;43.35;;;17.25;;
41201;SDS011;26936;50.524;8.684;2022-11-20T14:14:56;37.13;;;16.55;;
41201;SDS011;26936;50.524;8.684;2022-11-20T14:17:22;39.63;;;16.10;;
41201;SDS011;26936;50.524;8.684;2022-11-20T14:19:54;42.28;;;18.13;;
41201;SDS011;26936;50.524;8.684;2022-11-20T14:22:25;41.80;;;17.27;;
41201;SDS011;26936;50.524;8.684;2022-11-20T14:25:05;40.50;;;16.63;;
41201;SDS011;26936;50.524;8.684;2022-11-20T14:27:44;42.53;;;15.77;;
41201;SDS011;26936;50.524;8.684;2022-11-20T14:30:16;41.78;;;17.23;;
41201;SDS011;26936;50.524;8.684;2022-11-20T14:32:46;39.72;;;16.88;;
41201;SDS011;26936;50.524;8.684;2022-11-20T14:35:36;36.42;;;16.15;;
41201;SDS011;26936;50.524;8.684;2022-11-20T14:38:08;41.55;;;17.25;;
41201;SDS011;26936;50.524;8.684;2022-11-20T14:40:36;41.80;;;17.23;;
41201;SDS011;26936;50.524;8.684;2022-11-20T14:43:04;49.65;;;18.48;;
41201;SDS011;26936;50.524;8.684;2022-11-20T14:45:43;44.40;;;18.27;;
41201;SDS011;26936;50.524;8.684;2022-11-20T14:48:10;45.22;;;19.48;;
41201;SDS011;26936;50.524;8.684;2022-11-20T14:50:37;47.42;;;19.42;;
41201;SDS011;26936;50.524;8.684;2022-11-20T14:53:03;44.40;;;18.35;;
41201;SDS011;26936;50.524;8.684;2022-11-20T14:55:32;50.30;;;20.20;;
41201;SDS011;26936;50.524;8.684;2022-11-20T14:58:23;44.20;;;18.17;;
41201;SDS011;26936;50.524;8.684;2022-11-20T15:03:21;48.60;;;19.23;;
41201;SDS011;26936;50.524;8.684;2022-11-20T15:05:48;49.67;;;19.13;;
41201;SDS011;26936;50.524;8.684;2022-11-20T15:08:15;51.38;;;18.85;;
41201;SDS011;26936;50.524;8.684;2022-11-20T15:10:48;47.85;;;19.38;;
41201;SDS011;26936;50.524;8.684;2022-11-20T15:13:16;44.35;;;17.90;;
41201;SDS011;26936;50.524;8.684;2022-11-20T15:15:50;47.35;;;17.98;;
41201;SDS011;26936;50.524;8.684;2022-11-20T15:18:27;44.08;;;18.65;;
41201;SDS011;26936;50.524;8.684;2022-11-20T15:20:56;47.83;;;19.27;;
41201;SDS011;26936;50.524;8.684;2022-11-20T15:23:23;47.10;;;19.48;;
41201;SDS011;26936;50.524;8.684;2022-11-20T15:25:51;49.17;;;19.58;;
41201;SDS011;26936;50.524;8.684;2022-11-20T15:30:45;44.15;;;18.33;;
41201;SDS011;26936;50.524;8.684;2022-11-20T15:33:12;48.88;;;19.05;;
41201;SDS011;26936;50.524;8.684;2022-11-20T15:35:37;41.15;;;17.10;;
41201;SDS011;26936;50.524;8.684;2022-11-20T15:38:03;47.20;;;20.13;;
41201;SDS011;26936;50.524;8.684;2022-11-20T15:40:28;47.42;;;18.60;;
41201;SDS011;26936;50.524;8.684;2022-11-20T15:42:53;42.40;;;17.27;;
41201;SDS011;26936;50.524;8.684;2022-11-20T15:45:28;43.22;;;17.83;;
41201;SDS011;26936;50.524;8.684;2022-11-20T15:47:58;40.20;;;18.13;;
41201;SDS011;26936;50.524;8.684;2022-11-20T15:50:25;41.30;;;18.63;;
41201;SDS011;26936;50.524;8.684;2022-11-20T15:52:55;43.80;;;18.60;;
41201;SDS011;26936;50.524;8.684;2022-11-20T15:55:20;47.53;;;19.47;;
41201;SDS011;26936;50.524;8.684;2022-11-20T15:57:46;48.25;;;18.63;;
41201;SDS011;26936;50.524;8.684;2022-11-20T16:00:11;46.40;;;18.80;;
41201;SDS011;26936;50.524;8.684;2022-11-20T16:02:37;43.95;;;18.98;;
41201;SDS011;26936;50.524;8.684;2022-11-20T16:05:02;50.50;;;19.50;;
41201;SDS011;26936;50.524;8.684;2022-11-20T16:07:28;49.70;;;20.67;;
41201;SDS011;26936;50.524;8.684;2022-11-20T16:09:54;47.67;;;18.35;;
41201;SDS011;26936;50.524;8.684;2022-11-20T16:12:21;48.75;;;19.45;;
41201;SDS011;26936;50.524;8.684;2022-11-20T16:15:05;51.08;;;19.02;;
41201;SDS011;26936;50.524;8.684;2022-11-20T16:17:49;43.95;;;18.08;;